sensor_id;sensor_type;location;lat;lon;timestamp;P1;durP1;ratioP1;P2;durP2;ratioP2
67762;SDS011;54566;52.022;5.582;2023-11-19T00:00:11;19.40;;;5.18;;
67762;SDS011;54566;52.022;5.582;2023-11-19T00:02:38;15.55;;;4.75;;
67762;SDS011;54566;52.022;5.582;2023-11-19T00:05:04;21.55;;;5.25;;
67762;SDS011;54566;52.022;5.582;2023-11-19T00:07:33;14.18;;;4.30;;
67762;SDS011;54566;52.022;5.582;2023-11-19T00:10:00;22.77;;;4.95;;
67762;SDS011;54566;52.022;5.582;2023-11-19T00:12:29;15.35;;;4.03;;
67762;SDS011;54566;52.022;5.582;2023-11-19T00:14:54;23.63;;;4.93;;
67762;SDS011;54566;52.022;5.582;2023-11-19T00:17:20;19.45;;;4.93;;
67762;SDS011;54566;52.022;5.582;2023-11-19T00:19:46;21.67;;;5.43;;
67762;SDS011;54566;52.022;5.582;2023-11-19T00:22:14;24.15;;;4.30;;
67762;SDS011;54566;52.022;5.582;2023-11-19T00:24:40;25.05;;;4.55;;
67762;SDS011;54566;52.022;5.582;2023-11-19T00:27:06;24.05;;;4.53;;
67762;SDS011;54566;52.022;5.582;2023-11-19T00:29:33;22.80;;;5.03;;
67762;SDS011;54566;52.022;5.582;2023-11-19T00:31:59;18.15;;;4.50;;
67762;SDS011;54566;52.022;5.582;2023-11-19T00:34:25;21.70;;;4.50;;
67762;SDS011;54566;52.022;5.582;2023-11-19T00:36:51;24.65;;;4.82;;
67762;SDS011;54566;52.022;5.582;2023-11-19T00:39:17;28.40;;;5.35;;
67762;SDS011;54566;52.022;5.582;2023-11-19T00:41:43;31.15;;;4.63;;
67762;SDS011;54566;52.022;5.582;2023-11-19T00:44:10;25.08;;;4.90;;
67762;SDS011;54566;52.022;5.582;2023-11-19T00:46:36;23.38;;;3.85;;
67762;SDS011;54566;52.022;5.582;2023-11-19T00:49:02;32.83;;;4.70;;
67762;SDS011;54566;52.022;5.582;2023-11-19T00:51:28;27.60;;;4.22;;
67762;SDS011;54566;52.022;5.582;2023-11-19T00:53:56;25.88;;;5.20;;
67762;SDS011;54566;52.022;5.582;2023-11-19T00:56:22;26.55;;;4.90;;
67762;SDS011;54566;52.022;5.582;2023-11-19T00:58:49;33.97;;;4.88;;
67762;SDS011;54566;52.022;5.582;2023-11-19T01:01:15;26.35;;;5.25;;
67762;SDS011;54566;52.022;5.582;2023-11-19T01:03:41;32.38;;;5.28;;
67762;SDS011;54566;52.022;5.582;2023-11-19T01:06:07;22.35;;;4.18;;
67762;SDS011;54566;52.022;5.582;2023-11-19T01:08:33;29.08;;;5.18;;
67762;SDS011;54566;52.022;5.582;2023-11-19T01:11:01;24.23;;;4.72;;
67762;SDS011;54566;52.022;5.582;2023-11-19T01:13:27;26.23;;;4.05;;
67762;SDS011;54566;52.022;5.582;2023-11-19T01:15:53;29.08;;;4.32;;
67762;SDS011;54566;52.022;5.582;2023-11-19T01:18:21;32.70;;;5.07;;
67762;SDS011;54566;52.022;5.582;2023-11-19T01:20:47;35.10;;;4.85;;
67762;SDS011;54566;52.022;5.582;2023-11-19T01:23:13;29.73;;;4.70;;
67762;SDS011;54566;52.022;5.582;2023-11-19T01:25:39;29.92;;;5.15;;
67762;SDS011;54566;52.022;5.582;2023-11-19T01:28:05;42.05;;;4.88;;
67762;SDS011;54566;52.022;5.582;2023-11-19T01:30:31;37.20;;;4.88;;
67762;SDS011;54566;52.022;5.582;2023-11-19T01:32:57;40.45;;;4.80;;
67762;SDS011;54566;52.022;5.582;2023-11-19T01:35:23;32.60;;;4.22;;
67762;SDS011;54566;52.022;5.582;2023-11-19T01:37:49;39.47;;;5.53;;
67762;SDS011;54566;52.022;5.582;2023-11-19T01:40:19;39.20;;;5.05;;
67762;SDS011;54566;52.022;5.582;2023-11-19T01:42:45;37.20;;;4.63;;
67762;SDS011;54566;52.022;5.582;2023-11-19T01:45:15;28.15;;;4.63;;
67762;SDS011;54566;52.022;5.582;2023-11-19T01:47:47;24.85;;;4.28;;
67762;SDS011;54566;52.022;5.582;2023-11-19T01:50:13;31.35;;;4.25;;
67762;SDS011;54566;52.022;5.582;2023-11-19T01:52:40;39.55;;;5.15;;
67762;SDS011;54566;52.022;5.582;2023-11-19T01:55:06;31.90;;;4.18;;
67762;SDS011;54566;52.022;5.582;2023-11-19T01:57:33;27.90;;;3.90;;
67762;SDS011;54566;52.022;5.582;2023-11-19T01:59:59;29.08;;;3.97;;
67762;SDS011;54566;52.022;5.582;2023-11-19T02:02:27;31.48;;;4.63;;
67762;SDS011;54566;52.022;5.582;2023-11-19T02:04:53;34.47;;;4.85;;
67762;SDS011;54566;52.022;5.582;2023-11-19T02:07:19;36.97;;;5.05;;
67762;SDS011;54566;52.022;5.582;2023-11-19T02:09:45;34.33;;;4.32;;
67762;SDS011;54566;52.022;5.582;2023-11-19T02:12:11;31.25;;;4.68;;
67762;SDS011;54566;52.022;5.582;2023-11-19T02:14:37;35.75;;;4.82;;
67762;SDS011;54566;52.022;5.582;2023-11-19T02:17:04;37.47;;;4.55;;
67762;SDS011;54566;52.022;5.582;2023-11-19T02:19:30;44.95;;;5.30;;
67762;SDS011;54566;52.022;5.582;2023-11-19T02:21:56;42.80;;;5.18;;
67762;SDS011;54566;52.022;5.582;2023-11-19T02:24:22;41.38;;;4.55;;
67762;SDS011;54566;52.022;5.582;2023-11-19T02:26:54;39.85;;;4.75;;
67762;SDS011;54566;52.022;5.582;2023-11-19T02:29:21;38.50;;;4.68;;
67762;SDS011;54566;52.022;5.582;2023-11-19T02:31:47;38.85;;;5.45;;
67762;SDS011;54566;52.022;5.582;2023-11-19T02:34:13;31.75;;;4.38;;
67762;SDS011;54566;52.022;5.582;2023-11-19T02:36:41;44.97;;;5.10;;
67762;SDS011;54566;52.022;5.582;2023-11-19T02:39:07;50.05;;;5.55;;
67762;SDS011;54566;52.022;5.582;2023-11-19T02:41:37;45.55;;;5.88;;
67762;SDS011;54566;52.022;5.582;2023-11-19T02:44:04;48.45;;;6.20;;
67762;SDS011;54566;52.022;5.582;2023-11-19T02:46:30;42.70;;;5.07;;
67762;SDS011;54566;52.022;5.582;2023-11-19T02:48:57;48.80;;;6.30;;
67762;SDS011;54566;52.022;5.582;2023-11-19T02:51:23;41.30;;;5.25;;
67762;SDS011;54566;52.022;5.582;2023-11-19T02:53:49;49.75;;;5.43;;
67762;SDS011;54566;52.022;5.582;2023-11-19T02:56:15;50.67;;;6.57;;
67762;SDS011;54566;52.022;5.582;2023-11-19T02:58:50;48.35;;;5.85;;
67762;SDS011;54566;52.022;5.582;2023-11-19T03:01:25;53.25;;;5.78;;
67762;SDS011;54566;52.022;5.582;2023-11-19T03:06:22;53.42;;;5.50;;
67762;SDS011;54566;52.022;5.582;2023-11-19T03:08:48;64.30;;;6.40;;
67762;SDS011;54566;52.022;5.582;2023-11-19T03:11:14;47.25;;;6.03;;
67762;SDS011;54566;52.022;5.582;2023-11-19T03:13:40;61.80;;;7.32;;
67762;SDS011;54566;52.022;5.582;2023-11-19T03:16:07;56.67;;;6.95;;
67762;SDS011;54566;52.022;5.582;2023-11-19T03:18:33;41.95;;;6.35;;
67762;SDS011;54566;52.022;5.582;2023-11-19T03:20:59;55.20;;;6.15;;
67762;SDS011;54566;52.022;5.582;2023-11-19T03:23:25;56.45;;;7.38;;
67762;SDS011;54566;52.022;5.582;2023-11-19T03:25:54;63.05;;;7.38;;
67762;SDS011;54566;52.022;5.582;2023-11-19T03:28:22;54.50;;;6.35;;
67762;SDS011;54566;52.022;5.582;2023-11-19T03:30:48;52.78;;;7.30;;
67762;SDS011;54566;52.022;5.582;2023-11-19T03:33:14;72.38;;;8.23;;
67762;SDS011;54566;52.022;5.582;2023-11-19T03:35:40;58.88;;;8.15;;
67762;SDS011;54566;52.022;5.582;2023-11-19T03:38:06;56.35;;;6.40;;
67762;SDS011;54566;52.022;5.582;2023-11-19T03:40:32;47.50;;;5.85;;
67762;SDS011;54566;52.022;5.582;2023-11-19T03:42:58;52.83;;;6.28;;
67762;SDS011;54566;52.022;5.582;2023-11-19T03:45:24;60.08;;;7.03;;
67762;SDS011;54566;52.022;5.582;2023-11-19T03:47:50;62.42;;;6.40;;
67762;SDS011;54566;52.022;5.582;2023-11-19T03:50:16;61.10;;;7.13;;
67762;SDS011;54566;52.022;5.582;2023-11-19T03:52:45;56.78;;;6.32;;
67762;SDS011;54566;52.022;5.582;2023-11-19T03:55:11;58.63;;;6.63;;
67762;SDS011;54566;52.022;5.582;2023-11-19T03:57:37;57.88;;;7.75;;
67762;SDS011;54566;52.022;5.582;2023-11-19T04:00:05;67.57;;;6.55;;
67762;SDS011;54566;52.022;5.582;2023-11-19T04:02:36;56.20;;;6.60;;
67762;SDS011;54566;52.022;5.582;2023-11-19T04:05:02;57.53;;;6.97;;
67762;SDS011;54566;52.022;5.582;2023-11-19T04:07:30;58.78;;;6.60;;
67762;SDS011;54566;52.022;5.582;2023-11-19T04:09:56;48.28;;;5.93;;
67762;SDS011;54566;52.022;5.582;2023-11-19T04:12:22;58.17;;;7.82;;
67762;SDS011;54566;52.022;5.582;2023-11-19T04:14:48;59.08;;;7.07;;
67762;SDS011;54566;52.022;5.582;2023-11-19T04:17:14;62.85;;;6.90;;
67762;SDS011;54566;52.022;5.582;2023-11-19T04:19:40;63.67;;;7.07;;
67762;SDS011;54566;52.022;5.582;2023-11-19T04:22:07;58.15;;;6.30;;
67762;SDS011;54566;52.022;5.582;2023-11-19T04:24:34;50.90;;;5.35;;
67762;SDS011;54566;52.022;5.582;2023-11-19T04:27:00;57.92;;;6.28;;
67762;SDS011;54566;52.022;5.582;2023-11-19T04:29:26;45.95;;;6.30;;
67762;SDS011;54566;52.022;5.582;2023-11-19T04:31:52;60.42;;;6.80;;
67762;SDS011;54566;52.022;5.582;2023-11-19T04:34:18;58.35;;;6.25;;
67762;SDS011;54566;52.022;5.582;2023-11-19T04:36:44;57.67;;;6.43;;
67762;SDS011;54566;52.022;5.582;2023-11-19T04:39:10;58.03;;;6.72;;
67762;SDS011;54566;52.022;5.582;2023-11-19T04:41:47;63.22;;;7.22;;
67762;SDS011;54566;52.022;5.582;2023-11-19T04:44:19;51.47;;;6.07;;
67762;SDS011;54566;52.022;5.582;2023-11-19T04:46:45;40.05;;;4.85;;
67762;SDS011;54566;52.022;5.582;2023-11-19T04:49:12;47.25;;;5.88;;
67762;SDS011;54566;52.022;5.582;2023-11-19T04:51:40;50.88;;;6.43;;
67762;SDS011;54566;52.022;5.582;2023-11-19T04:54:10;62.38;;;7.22;;
67762;SDS011;54566;52.022;5.582;2023-11-19T04:56:36;53.88;;;7.00;;
67762;SDS011;54566;52.022;5.582;2023-11-19T04:59:02;45.25;;;5.43;;
67762;SDS011;54566;52.022;5.582;2023-11-19T05:01:28;59.00;;;6.95;;
67762;SDS011;54566;52.022;5.582;2023-11-19T05:03:55;60.38;;;6.28;;
67762;SDS011;54566;52.022;5.582;2023-11-19T05:06:27;51.75;;;6.70;;
67762;SDS011;54566;52.022;5.582;2023-11-19T05:08:58;52.67;;;6.35;;
67762;SDS011;54566;52.022;5.582;2023-11-19T05:11:26;60.83;;;6.47;;
67762;SDS011;54566;52.022;5.582;2023-11-19T05:13:53;55.95;;;7.10;;
67762;SDS011;54566;52.022;5.582;2023-11-19T05:16:19;61.03;;;7.80;;
67762;SDS011;54566;52.022;5.582;2023-11-19T05:18:46;65.93;;;7.20;;
67762;SDS011;54566;52.022;5.582;2023-11-19T05:21:12;57.05;;;6.93;;
67762;SDS011;54566;52.022;5.582;2023-11-19T05:23:38;48.00;;;5.50;;
67762;SDS011;54566;52.022;5.582;2023-11-19T05:26:04;59.45;;;6.93;;
67762;SDS011;54566;52.022;5.582;2023-11-19T05:28:30;55.67;;;6.82;;
67762;SDS011;54566;52.022;5.582;2023-11-19T05:30:56;64.30;;;6.63;;
67762;SDS011;54566;52.022;5.582;2023-11-19T05:33:22;52.10;;;6.70;;
67762;SDS011;54566;52.022;5.582;2023-11-19T05:35:49;62.17;;;7.38;;
67762;SDS011;54566;52.022;5.582;2023-11-19T05:38:14;55.40;;;7.03;;
67762;SDS011;54566;52.022;5.582;2023-11-19T05:40:41;60.50;;;7.30;;
67762;SDS011;54566;52.022;5.582;2023-11-19T05:43:07;52.15;;;5.68;;
67762;SDS011;54566;52.022;5.582;2023-11-19T05:45:33;57.22;;;7.55;;
67762;SDS011;54566;52.022;5.582;2023-11-19T05:47:59;62.33;;;7.57;;
67762;SDS011;54566;52.022;5.582;2023-11-19T05:50:25;71.47;;;7.30;;
67762;SDS011;54566;52.022;5.582;2023-11-19T05:52:51;54.20;;;7.03;;
67762;SDS011;54566;52.022;5.582;2023-11-19T05:55:18;61.05;;;6.32;;
67762;SDS011;54566;52.022;5.582;2023-11-19T05:57:44;61.85;;;6.18;;
67762;SDS011;54566;52.022;5.582;2023-11-19T06:00:11;54.33;;;7.25;;
67762;SDS011;54566;52.022;5.582;2023-11-19T06:02:38;49.08;;;5.82;;
67762;SDS011;54566;52.022;5.582;2023-11-19T06:05:04;75.78;;;8.63;;
67762;SDS011;54566;52.022;5.582;2023-11-19T06:07:34;61.75;;;8.32;;
67762;SDS011;54566;52.022;5.582;2023-11-19T06:10:01;64.43;;;6.78;;
67762;SDS011;54566;52.022;5.582;2023-11-19T06:12:31;56.50;;;6.57;;
67762;SDS011;54566;52.022;5.582;2023-11-19T06:14:58;58.50;;;7.70;;
67762;SDS011;54566;52.022;5.582;2023-11-19T06:17:24;63.35;;;6.70;;
67762;SDS011;54566;52.022;5.582;2023-11-19T06:19:50;65.10;;;7.38;;
67762;SDS011;54566;52.022;5.582;2023-11-19T06:22:17;57.78;;;6.95;;
67762;SDS011;54566;52.022;5.582;2023-11-19T06:24:43;56.75;;;6.68;;
67762;SDS011;54566;52.022;5.582;2023-11-19T06:27:09;59.75;;;7.25;;
67762;SDS011;54566;52.022;5.582;2023-11-19T06:29:36;60.40;;;6.72;;
67762;SDS011;54566;52.022;5.582;2023-11-19T06:32:02;65.25;;;7.63;;
67762;SDS011;54566;52.022;5.582;2023-11-19T06:34:28;62.38;;;6.75;;
67762;SDS011;54566;52.022;5.582;2023-11-19T06:36:54;67.63;;;7.00;;
67762;SDS011;54566;52.022;5.582;2023-11-19T06:39:20;57.35;;;7.30;;
67762;SDS011;54566;52.022;5.582;2023-11-19T06:41:46;54.83;;;6.63;;
67762;SDS011;54566;52.022;5.582;2023-11-19T06:44:12;58.50;;;6.95;;
67762;SDS011;54566;52.022;5.582;2023-11-19T06:46:39;53.88;;;5.97;;
67762;SDS011;54566;52.022;5.582;2023-11-19T06:49:05;63.72;;;7.90;;
67762;SDS011;54566;52.022;5.582;2023-11-19T06:51:33;69.43;;;10.80;;
67762;SDS011;54566;52.022;5.582;2023-11-19T06:54:00;68.40;;;8.55;;
67762;SDS011;54566;52.022;5.582;2023-11-19T06:56:26;60.63;;;7.57;;
67762;SDS011;54566;52.022;5.582;2023-11-19T06:58:52;66.68;;;6.97;;
67762;SDS011;54566;52.022;5.582;2023-11-19T07:01:18;57.05;;;6.93;;
67762;SDS011;54566;52.022;5.582;2023-11-19T07:03:47;54.58;;;7.30;;
67762;SDS011;54566;52.022;5.582;2023-11-19T07:06:14;61.72;;;7.80;;
67762;SDS011;54566;52.022;5.582;2023-11-19T07:08:43;67.93;;;6.65;;
67762;SDS011;54566;52.022;5.582;2023-11-19T07:11:10;53.88;;;5.55;;
67762;SDS011;54566;52.022;5.582;2023-11-19T07:13:36;66.63;;;8.43;;
67762;SDS011;54566;52.022;5.582;2023-11-19T07:16:03;58.05;;;7.32;;
67762;SDS011;54566;52.022;5.582;2023-11-19T07:18:29;69.45;;;7.20;;
67762;SDS011;54566;52.022;5.582;2023-11-19T07:20:56;63.67;;;6.32;;
67762;SDS011;54566;52.022;5.582;2023-11-19T07:23:24;57.55;;;6.63;;
67762;SDS011;54566;52.022;5.582;2023-11-19T07:25:51;69.65;;;6.95;;
67762;SDS011;54566;52.022;5.582;2023-11-19T07:28:18;75.38;;;7.18;;
67762;SDS011;54566;52.022;5.582;2023-11-19T07:30:44;57.88;;;6.82;;
67762;SDS011;54566;52.022;5.582;2023-11-19T07:33:10;68.53;;;7.97;;
67762;SDS011;54566;52.022;5.582;2023-11-19T07:35:38;61.08;;;6.70;;
67762;SDS011;54566;52.022;5.582;2023-11-19T07:38:07;61.40;;;8.02;;
67762;SDS011;54566;52.022;5.582;2023-11-19T07:40:33;69.97;;;7.20;;
67762;SDS011;54566;52.022;5.582;2023-11-19T07:42:59;49.47;;;6.70;;
67762;SDS011;54566;52.022;5.582;2023-11-19T07:45:25;63.92;;;6.85;;
67762;SDS011;54566;52.022;5.582;2023-11-19T07:47:52;49.83;;;6.22;;
67762;SDS011;54566;52.022;5.582;2023-11-19T07:50:19;63.33;;;6.55;;
67762;SDS011;54566;52.022;5.582;2023-11-19T07:52:45;56.97;;;7.05;;
67762;SDS011;54566;52.022;5.582;2023-11-19T07:55:14;61.42;;;7.10;;
67762;SDS011;54566;52.022;5.582;2023-11-19T07:57:40;50.00;;;5.90;;
67762;SDS011;54566;52.022;5.582;2023-11-19T08:00:06;55.17;;;6.60;;
67762;SDS011;54566;52.022;5.582;2023-11-19T08:05:41;50.40;;;7.93;;
67762;SDS011;54566;52.022;5.582;2023-11-19T08:08:07;58.70;;;6.60;;
67762;SDS011;54566;52.022;5.582;2023-11-19T08:10:33;51.55;;;6.60;;
67762;SDS011;54566;52.022;5.582;2023-11-19T08:13:02;54.67;;;7.40;;
67762;SDS011;54566;52.022;5.582;2023-11-19T08:15:47;58.58;;;6.53;;
67762;SDS011;54566;52.022;5.582;2023-11-19T08:18:26;51.88;;;6.65;;
67762;SDS011;54566;52.022;5.582;2023-11-19T08:24:16;52.45;;;5.65;;
67762;SDS011;54566;52.022;5.582;2023-11-19T08:42:26;51.47;;;6.32;;
67762;SDS011;54566;52.022;5.582;2023-11-19T08:48:08;52.55;;;7.55;;
67762;SDS011;54566;52.022;5.582;2023-11-19T08:50:34;50.63;;;5.63;;
67762;SDS011;54566;52.022;5.582;2023-11-19T08:53:03;45.67;;;5.57;;
67762;SDS011;54566;52.022;5.582;2023-11-19T08:58:00;50.35;;;6.18;;
67762;SDS011;54566;52.022;5.582;2023-11-19T09:00:39;58.15;;;6.25;;
67762;SDS011;54566;52.022;5.582;2023-11-19T09:03:10;51.22;;;5.75;;
67762;SDS011;54566;52.022;5.582;2023-11-19T09:22:08;56.42;;;6.65;;
67762;SDS011;54566;52.022;5.582;2023-11-19T09:24:35;54.90;;;5.70;;
67762;SDS011;54566;52.022;5.582;2023-11-19T09:27:04;56.92;;;5.50;;
67762;SDS011;54566;52.022;5.582;2023-11-19T09:29:33;51.72;;;5.93;;
67762;SDS011;54566;52.022;5.582;2023-11-19T09:32:00;49.97;;;6.53;;
67762;SDS011;54566;52.022;5.582;2023-11-19T09:34:26;52.42;;;6.20;;
67762;SDS011;54566;52.022;5.582;2023-11-19T09:36:53;41.03;;;5.65;;
67762;SDS011;54566;52.022;5.582;2023-11-19T09:39:19;56.40;;;6.72;;
67762;SDS011;54566;52.022;5.582;2023-11-19T09:41:46;39.25;;;5.53;;
67762;SDS011;54566;52.022;5.582;2023-11-19T09:44:12;49.85;;;6.35;;
67762;SDS011;54566;52.022;5.582;2023-11-19T09:46:40;53.13;;;6.50;;
67762;SDS011;54566;52.022;5.582;2023-11-19T09:49:08;46.70;;;6.32;;
67762;SDS011;54566;52.022;5.582;2023-11-19T09:51:36;52.83;;;6.00;;
67762;SDS011;54566;52.022;5.582;2023-11-19T09:54:03;53.90;;;6.35;;
67762;SDS011;54566;52.022;5.582;2023-11-19T09:56:33;55.13;;;7.28;;
67762;SDS011;54566;52.022;5.582;2023-11-19T10:02:15;49.97;;;6.45;;
67762;SDS011;54566;52.022;5.582;2023-11-19T10:04:42;49.17;;;6.50;;
67762;SDS011;54566;52.022;5.582;2023-11-19T10:07:09;47.88;;;6.32;;
67762;SDS011;54566;52.022;5.582;2023-11-19T10:09:38;37.67;;;6.25;;
67762;SDS011;54566;52.022;5.582;2023-11-19T10:12:04;58.47;;;6.68;;
67762;SDS011;54566;52.022;5.582;2023-11-19T10:14:31;54.45;;;6.90;;
67762;SDS011;54566;52.022;5.582;2023-11-19T10:16:58;52.15;;;6.60;;
67762;SDS011;54566;52.022;5.582;2023-11-19T10:19:29;46.20;;;5.70;;
67762;SDS011;54566;52.022;5.582;2023-11-19T10:21:56;47.17;;;6.40;;
67762;SDS011;54566;52.022;5.582;2023-11-19T10:24:31;46.63;;;6.18;;
67762;SDS011;54566;52.022;5.582;2023-11-19T10:27:03;46.37;;;5.93;;
67762;SDS011;54566;52.022;5.582;2023-11-19T10:29:35;51.50;;;6.13;;
67762;SDS011;54566;52.022;5.582;2023-11-19T10:32:07;43.03;;;6.15;;
67762;SDS011;54566;52.022;5.582;2023-11-19T10:34:37;45.40;;;5.68;;
67762;SDS011;54566;52.022;5.582;2023-11-19T10:37:04;59.92;;;6.97;;
67762;SDS011;54566;52.022;5.582;2023-11-19T10:42:15;43.53;;;5.93;;
67762;SDS011;54566;52.022;5.582;2023-11-19T10:44:41;39.97;;;6.00;;
67762;SDS011;54566;52.022;5.582;2023-11-19T10:47:08;46.85;;;5.57;;
67762;SDS011;54566;52.022;5.582;2023-11-19T10:49:35;46.85;;;6.55;;
67762;SDS011;54566;52.022;5.582;2023-11-19T10:52:01;43.10;;;5.80;;
67762;SDS011;54566;52.022;5.582;2023-11-19T10:54:31;41.55;;;6.10;;
67762;SDS011;54566;52.022;5.582;2023-11-19T10:56:59;42.00;;;5.45;;
67762;SDS011;54566;52.022;5.582;2023-11-19T10:59:28;45.80;;;6.03;;
67762;SDS011;54566;52.022;5.582;2023-11-19T11:01:56;42.10;;;6.25;;
67762;SDS011;54566;52.022;5.582;2023-11-19T11:04:23;49.42;;;5.85;;
67762;SDS011;54566;52.022;5.582;2023-11-19T11:06:54;50.55;;;6.70;;
67762;SDS011;54566;52.022;5.582;2023-11-19T11:09:23;48.05;;;5.97;;
67762;SDS011;54566;52.022;5.582;2023-11-19T11:11:51;42.83;;;6.47;;
67762;SDS011;54566;52.022;5.582;2023-11-19T11:14:18;50.13;;;6.65;;
67762;SDS011;54566;52.022;5.582;2023-11-19T11:16:49;50.30;;;6.47;;
67762;SDS011;54566;52.022;5.582;2023-11-19T11:19:18;38.17;;;5.93;;
67762;SDS011;54566;52.022;5.582;2023-11-19T11:21:46;49.80;;;6.38;;
67762;SDS011;54566;52.022;5.582;2023-11-19T11:29:48;48.13;;;5.93;;
67762;SDS011;54566;52.022;5.582;2023-11-19T11:32:33;57.58;;;6.38;;
67762;SDS011;54566;52.022;5.582;2023-11-19T11:37:45;52.10;;;5.85;;
67762;SDS011;54566;52.022;5.582;2023-11-19T11:42:39;52.50;;;6.10;;
67762;SDS011;54566;52.022;5.582;2023-11-19T11:45:07;43.73;;;5.57;;
67762;SDS011;54566;52.022;5.582;2023-11-19T11:50:12;42.88;;;6.35;;
67762;SDS011;54566;52.022;5.582;2023-11-19T11:55:26;38.03;;;6.40;;
67762;SDS011;54566;52.022;5.582;2023-11-19T11:57:55;31.33;;;4.85;;
67762;SDS011;54566;52.022;5.582;2023-11-19T12:00:36;38.80;;;6.10;;
67762;SDS011;54566;52.022;5.582;2023-11-19T12:03:04;36.17;;;4.95;;
67762;SDS011;54566;52.022;5.582;2023-11-19T12:05:30;39.08;;;4.65;;
67762;SDS011;54566;52.022;5.582;2023-11-19T12:08:05;41.03;;;4.78;;
67762;SDS011;54566;52.022;5.582;2023-11-19T12:10:36;31.20;;;5.28;;
67762;SDS011;54566;52.022;5.582;2023-11-19T12:13:04;29.13;;;4.18;;
67762;SDS011;54566;52.022;5.582;2023-11-19T12:15:33;23.58;;;3.75;;
67762;SDS011;54566;52.022;5.582;2023-11-19T12:17:59;32.47;;;4.30;;
67762;SDS011;54566;52.022;5.582;2023-11-19T12:20:25;28.15;;;4.18;;
67762;SDS011;54566;52.022;5.582;2023-11-19T12:22:53;23.38;;;3.72;;
67762;SDS011;54566;52.022;5.582;2023-11-19T12:25:28;28.77;;;3.92;;
67762;SDS011;54566;52.022;5.582;2023-11-19T12:28:02;30.48;;;4.35;;
67762;SDS011;54566;52.022;5.582;2023-11-19T12:30:38;35.95;;;5.10;;
67762;SDS011;54566;52.022;5.582;2023-11-19T12:33:14;33.97;;;5.70;;
67762;SDS011;54566;52.022;5.582;2023-11-19T12:35:41;42.85;;;5.57;;
67762;SDS011;54566;52.022;5.582;2023-11-19T12:38:17;33.53;;;4.97;;
67762;SDS011;54566;52.022;5.582;2023-11-19T12:40:44;43.20;;;4.70;;
67762;SDS011;54566;52.022;5.582;2023-11-19T12:43:22;40.15;;;4.93;;
67762;SDS011;54566;52.022;5.582;2023-11-19T12:46:02;37.92;;;5.53;;
67762;SDS011;54566;52.022;5.582;2023-11-19T12:48:37;26.45;;;4.47;;
67762;SDS011;54566;52.022;5.582;2023-11-19T12:51:13;38.22;;;4.88;;
67762;SDS011;54566;52.022;5.582;2023-11-19T12:53:57;33.75;;;4.20;;
67762;SDS011;54566;52.022;5.582;2023-11-19T13:06:34;41.78;;;5.68;;
67762;SDS011;54566;52.022;5.582;2023-11-19T13:09:09;31.55;;;4.95;;
67762;SDS011;54566;52.022;5.582;2023-11-19T13:11:58;44.03;;;5.75;;
67762;SDS011;54566;52.022;5.582;2023-11-19T13:14:35;48.17;;;5.72;;
67762;SDS011;54566;52.022;5.582;2023-11-19T13:17:15;27.67;;;4.82;;
67762;SDS011;54566;52.022;5.582;2023-11-19T13:23:05;34.10;;;4.88;;
67762;SDS011;54566;52.022;5.582;2023-11-19T13:25:35;30.77;;;5.00;;
67762;SDS011;54566;52.022;5.582;2023-11-19T13:28:36;37.95;;;5.55;;
67762;SDS011;54566;52.022;5.582;2023-11-19T13:31:05;46.53;;;6.13;;
67762;SDS011;54566;52.022;5.582;2023-11-19T13:33:31;39.25;;;5.18;;
67762;SDS011;54566;52.022;5.582;2023-11-19T13:35:57;37.08;;;4.97;;
67762;SDS011;54566;52.022;5.582;2023-11-19T14:00:58;34.08;;;4.30;;
67762;SDS011;54566;52.022;5.582;2023-11-19T14:03:42;26.08;;;4.28;;
67762;SDS011;54566;52.022;5.582;2023-11-19T14:06:11;38.47;;;4.85;;
67762;SDS011;54566;52.022;5.582;2023-11-19T14:11:05;36.35;;;4.70;;
67762;SDS011;54566;52.022;5.582;2023-11-19T14:13:35;33.80;;;4.25;;
67762;SDS011;54566;52.022;5.582;2023-11-19T14:16:04;41.45;;;4.97;;
67762;SDS011;54566;52.022;5.582;2023-11-19T14:18:33;30.92;;;5.07;;
67762;SDS011;54566;52.022;5.582;2023-11-19T14:23:28;34.03;;;4.05;;
67762;SDS011;54566;52.022;5.582;2023-11-19T14:25:54;30.52;;;4.22;;
67762;SDS011;54566;52.022;5.582;2023-11-19T14:28:23;42.60;;;5.03;;
67762;SDS011;54566;52.022;5.582;2023-11-19T14:30:51;38.88;;;5.43;;
67762;SDS011;54566;52.022;5.582;2023-11-19T14:33:23;34.00;;;4.53;;
67762;SDS011;54566;52.022;5.582;2023-11-19T14:35:49;36.03;;;5.93;;
67762;SDS011;54566;52.022;5.582;2023-11-19T14:38:15;34.35;;;4.60;;
67762;SDS011;54566;52.022;5.582;2023-11-19T14:40:41;42.30;;;4.40;;
67762;SDS011;54566;52.022;5.582;2023-11-19T14:43:07;38.50;;;4.75;;
67762;SDS011;54566;52.022;5.582;2023-11-19T14:45:37;39.42;;;5.05;;
67762;SDS011;54566;52.022;5.582;2023-11-19T14:48:03;32.25;;;4.35;;
67762;SDS011;54566;52.022;5.582;2023-11-19T14:50:29;30.13;;;5.50;;
67762;SDS011;54566;52.022;5.582;2023-11-19T14:52:55;32.75;;;5.10;;
67762;SDS011;54566;52.022;5.582;2023-11-19T14:55:30;31.63;;;4.80;;
67762;SDS011;54566;52.022;5.582;2023-11-19T14:57:57;38.55;;;4.68;;
67762;SDS011;54566;52.022;5.582;2023-11-19T15:00:23;38.53;;;4.53;;
67762;SDS011;54566;52.022;5.582;2023-11-19T15:02:50;47.53;;;5.68;;
67762;SDS011;54566;52.022;5.582;2023-11-19T15:05:30;34.65;;;5.03;;
67762;SDS011;54566;52.022;5.582;2023-11-19T15:08:13;37.30;;;4.50;;
67762;SDS011;54566;52.022;5.582;2023-11-19T15:10:59;31.45;;;4.13;;
67762;SDS011;54566;52.022;5.582;2023-11-19T15:13:34;41.25;;;5.18;;
67762;SDS011;54566;52.022;5.582;2023-11-19T15:16:13;36.65;;;4.90;;
67762;SDS011;54566;52.022;5.582;2023-11-19T15:18:52;33.25;;;5.00;;
67762;SDS011;54566;52.022;5.582;2023-11-19T15:21:36;39.28;;;5.38;;
67762;SDS011;54566;52.022;5.582;2023-11-19T15:24:07;29.95;;;4.30;;
67762;SDS011;54566;52.022;5.582;2023-11-19T15:26:34;43.83;;;5.22;;
67762;SDS011;54566;52.022;5.582;2023-11-19T15:29:11;30.30;;;4.25;;
67762;SDS011;54566;52.022;5.582;2023-11-19T15:34:50;33.65;;;4.82;;
67762;SDS011;54566;52.022;5.582;2023-11-19T15:37:16;33.22;;;5.18;;
67762;SDS011;54566;52.022;5.582;2023-11-19T15:39:42;40.42;;;5.63;;
67762;SDS011;54566;52.022;5.582;2023-11-19T15:42:09;43.03;;;4.70;;
67762;SDS011;54566;52.022;5.582;2023-11-19T15:44:37;33.22;;;5.88;;
67762;SDS011;54566;52.022;5.582;2023-11-19T15:47:03;34.58;;;4.93;;
67762;SDS011;54566;52.022;5.582;2023-11-19T15:49:30;38.63;;;5.25;;
67762;SDS011;54566;52.022;5.582;2023-11-19T15:51:56;32.83;;;5.05;;
67762;SDS011;54566;52.022;5.582;2023-11-19T15:54:25;36.08;;;5.47;;
67762;SDS011;54566;52.022;5.582;2023-11-19T15:57:05;37.30;;;4.25;;
67762;SDS011;54566;52.022;5.582;2023-11-19T15:59:31;35.70;;;5.43;;
67762;SDS011;54566;52.022;5.582;2023-11-19T16:08:17;33.63;;;4.57;;
67762;SDS011;54566;52.022;5.582;2023-11-19T16:11:05;44.38;;;6.20;;
67762;SDS011;54566;52.022;5.582;2023-11-19T16:16:45;25.23;;;4.28;;
67762;SDS011;54566;52.022;5.582;2023-11-19T16:19:56;34.10;;;4.97;;
67762;SDS011;54566;52.022;5.582;2023-11-19T16:22:30;30.13;;;4.40;;
67762;SDS011;54566;52.022;5.582;2023-11-19T16:24:56;26.55;;;3.55;;
67762;SDS011;54566;52.022;5.582;2023-11-19T16:27:31;36.83;;;4.75;;
67762;SDS011;54566;52.022;5.582;2023-11-19T16:33:18;32.83;;;4.22;;
67762;SDS011;54566;52.022;5.582;2023-11-19T16:35:52;26.13;;;3.65;;
67762;SDS011;54566;52.022;5.582;2023-11-19T16:38:35;35.83;;;4.55;;
67762;SDS011;54566;52.022;5.582;2023-11-19T16:41:21;29.83;;;4.13;;
67762;SDS011;54566;52.022;5.582;2023-11-19T16:44:09;39.50;;;4.72;;
67762;SDS011;54566;52.022;5.582;2023-11-19T16:46:37;26.80;;;3.20;;